sensor_id;sensor_type;location;lat;lon;timestamp;P1;durP1;ratioP1;P2;durP2;ratioP2
10232;SDS011;5161;48.174;11.756;2023-02-11T00:01:38;24.90;;;17.87;;
10232;SDS011;5161;48.174;11.756;2023-02-11T00:04:04;25.17;;;17.83;;
10232;SDS011;5161;48.174;11.756;2023-02-11T00:06:31;26.43;;;17.77;;
10232;SDS011;5161;48.174;11.756;2023-02-11T00:08:59;24.70;;;17.80;;
10232;SDS011;5161;48.174;11.756;2023-02-11T00:11:25;25.70;;;17.33;;
10232;SDS011;5161;48.174;11.756;2023-02-11T00:13:54;30.23;;;17.83;;
10232;SDS011;5161;48.174;11.756;2023-02-11T00:16:21;27.43;;;17.33;;
10232;SDS011;5161;48.174;11.756;2023-02-11T00:18:46;26.63;;;18.17;;
10232;SDS011;5161;48.174;11.756;2023-02-11T00:21:16;24.43;;;16.83;;
10232;SDS011;5161;48.174;11.756;2023-02-11T00:23:45;23.73;;;16.40;;
10232;SDS011;5161;48.174;11.756;2023-02-11T00:26:31;24.87;;;17.50;;
10232;SDS011;5161;48.174;11.756;2023-02-11T00:28:58;23.73;;;17.17;;
10232;SDS011;5161;48.174;11.756;2023-02-11T00:31:25;24.67;;;16.77;;
10232;SDS011;5161;48.174;11.756;2023-02-11T00:33:50;22.57;;;16.67;;
10232;SDS011;5161;48.174;11.756;2023-02-11T00:36:17;23.23;;;16.57;;
10232;SDS011;5161;48.174;11.756;2023-02-11T00:38:45;24.23;;;16.80;;
10232;SDS011;5161;48.174;11.756;2023-02-11T00:41:12;25.97;;;16.43;;
10232;SDS011;5161;48.174;11.756;2023-02-11T00:43:39;24.00;;;17.10;;
10232;SDS011;5161;48.174;11.756;2023-02-11T00:46:05;22.17;;;15.93;;
10232;SDS011;5161;48.174;11.756;2023-02-11T00:48:31;24.77;;;16.07;;
10232;SDS011;5161;48.174;11.756;2023-02-11T00:50:57;27.30;;;17.30;;
10232;SDS011;5161;48.174;11.756;2023-02-11T00:53:23;22.63;;;16.03;;
10232;SDS011;5161;48.174;11.756;2023-02-11T00:55:48;23.57;;;16.33;;
10232;SDS011;5161;48.174;11.756;2023-02-11T00:58:14;22.57;;;16.03;;
10232;SDS011;5161;48.174;11.756;2023-02-11T01:00:39;20.87;;;16.13;;
10232;SDS011;5161;48.174;11.756;2023-02-11T01:03:05;22.47;;;16.50;;
10232;SDS011;5161;48.174;11.756;2023-02-11T01:05:31;21.70;;;15.80;;
10232;SDS011;5161;48.174;11.756;2023-02-11T01:07:57;22.37;;;15.73;;
10232;SDS011;5161;48.174;11.756;2023-02-11T01:10:22;23.67;;;15.90;;
10232;SDS011;5161;48.174;11.756;2023-02-11T01:12:48;20.87;;;14.97;;
10232;SDS011;5161;48.174;11.756;2023-02-11T01:15:15;20.40;;;15.20;;
10232;SDS011;5161;48.174;11.756;2023-02-11T01:17:41;21.53;;;15.73;;
10232;SDS011;5161;48.174;11.756;2023-02-11T01:20:10;21.30;;;15.67;;
10232;SDS011;5161;48.174;11.756;2023-02-11T01:22:39;23.70;;;15.73;;
10232;SDS011;5161;48.174;11.756;2023-02-11T01:25:06;21.87;;;15.50;;
10232;SDS011;5161;48.174;11.756;2023-02-11T01:27:32;20.07;;;14.83;;
10232;SDS011;5161;48.174;11.756;2023-02-11T01:29:58;21.63;;;15.30;;
10232;SDS011;5161;48.174;11.756;2023-02-11T01:32:23;21.30;;;14.90;;
10232;SDS011;5161;48.174;11.756;2023-02-11T01:34:49;22.37;;;15.83;;
10232;SDS011;5161;48.174;11.756;2023-02-11T01:37:15;20.20;;;14.53;;
10232;SDS011;5161;48.174;11.756;2023-02-11T01:39:41;20.60;;;14.50;;
10232;SDS011;5161;48.174;11.756;2023-02-11T01:42:06;21.07;;;15.03;;
10232;SDS011;5161;48.174;11.756;2023-02-11T01:44:37;21.47;;;15.00;;
10232;SDS011;5161;48.174;11.756;2023-02-11T01:47:04;19.00;;;13.67;;
10232;SDS011;5161;48.174;11.756;2023-02-11T01:49:31;19.60;;;14.50;;
10232;SDS011;5161;48.174;11.756;2023-02-11T01:52:01;20.93;;;14.23;;
10232;SDS011;5161;48.174;11.756;2023-02-11T01:54:34;20.93;;;14.57;;
10232;SDS011;5161;48.174;11.756;2023-02-11T01:57:22;19.00;;;13.93;;
10232;SDS011;5161;48.174;11.756;2023-02-11T01:59:56;23.93;;;14.33;;
10232;SDS011;5161;48.174;11.756;2023-02-11T02:02:38;19.37;;;13.40;;
10232;SDS011;5161;48.174;11.756;2023-02-11T02:05:17;19.97;;;14.37;;
10232;SDS011;5161;48.174;11.756;2023-02-11T02:07:53;20.10;;;14.33;;
10232;SDS011;5161;48.174;11.756;2023-02-11T02:10:40;20.03;;;14.10;;
10232;SDS011;5161;48.174;11.756;2023-02-11T02:13:08;18.77;;;13.43;;
10232;SDS011;5161;48.174;11.756;2023-02-11T02:15:38;16.80;;;13.03;;
10232;SDS011;5161;48.174;11.756;2023-02-11T02:31:44;17.63;;;13.23;;
10232;SDS011;5161;48.174;11.756;2023-02-11T02:34:46;19.07;;;13.37;;
10232;SDS011;5161;48.174;11.756;2023-02-11T02:37:21;19.23;;;13.10;;
10232;SDS011;5161;48.174;11.756;2023-02-11T02:39:52;20.63;;;13.30;;
10232;SDS011;5161;48.174;11.756;2023-02-11T02:42:19;20.37;;;13.67;;
10232;SDS011;5161;48.174;11.756;2023-02-11T02:44:47;21.10;;;13.37;;
10232;SDS011;5161;48.174;11.756;2023-02-11T02:47:17;17.03;;;12.83;;
10232;SDS011;5161;48.174;11.756;2023-02-11T02:49:43;18.47;;;12.83;;
10232;SDS011;5161;48.174;11.756;2023-02-11T02:52:22;18.00;;;12.97;;
10232;SDS011;5161;48.174;11.756;2023-02-11T02:58:04;17.13;;;12.33;;
10232;SDS011;5161;48.174;11.756;2023-02-11T03:03:38;17.57;;;12.63;;
10232;SDS011;5161;48.174;11.756;2023-02-11T03:06:12;18.50;;;12.80;;
10232;SDS011;5161;48.174;11.756;2023-02-11T03:08:45;15.67;;;11.90;;
10232;SDS011;5161;48.174;11.756;2023-02-11T03:11:16;18.67;;;12.37;;
10232;SDS011;5161;48.174;11.756;2023-02-11T03:13:43;19.03;;;12.80;;
10232;SDS011;5161;48.174;11.756;2023-02-11T03:16:16;16.50;;;12.20;;
10232;SDS011;5161;48.174;11.756;2023-02-11T03:18:47;15.67;;;11.83;;
10232;SDS011;5161;48.174;11.756;2023-02-11T03:21:16;19.43;;;12.50;;
10232;SDS011;5161;48.174;11.756;2023-02-11T03:23:52;14.73;;;11.10;;
10232;SDS011;5161;48.174;11.756;2023-02-11T03:28:51;17.50;;;11.40;;
10232;SDS011;5161;48.174;11.756;2023-02-11T03:31:26;14.77;;;10.50;;
10232;SDS011;5161;48.174;11.756;2023-02-11T03:37:19;12.80;;;9.37;;
10232;SDS011;5161;48.174;11.756;2023-02-11T03:39:50;14.70;;;9.50;;
10232;SDS011;5161;48.174;11.756;2023-02-11T03:42:22;13.27;;;9.87;;
10232;SDS011;5161;48.174;11.756;2023-02-11T03:44:52;12.83;;;9.50;;
10232;SDS011;5161;48.174;11.756;2023-02-11T03:47:30;13.30;;;9.83;;
10232;SDS011;5161;48.174;11.756;2023-02-11T03:50:00;14.60;;;9.77;;
10232;SDS011;5161;48.174;11.756;2023-02-11T03:52:28;11.47;;;8.73;;
10232;SDS011;5161;48.174;11.756;2023-02-11T03:54:56;12.33;;;9.17;;
10232;SDS011;5161;48.174;11.756;2023-02-11T03:57:23;12.37;;;9.33;;
10232;SDS011;5161;48.174;11.756;2023-02-11T03:59:56;11.37;;;9.33;;
10232;SDS011;5161;48.174;11.756;2023-02-11T04:02:24;11.73;;;8.87;;
10232;SDS011;5161;48.174;11.756;2023-02-11T04:04:54;12.17;;;8.97;;
10232;SDS011;5161;48.174;11.756;2023-02-11T04:07:19;12.27;;;8.60;;
10232;SDS011;5161;48.174;11.756;2023-02-11T04:09:45;11.43;;;8.03;;
10232;SDS011;5161;48.174;11.756;2023-02-11T04:12:11;11.47;;;8.47;;
10232;SDS011;5161;48.174;11.756;2023-02-11T04:14:38;11.47;;;8.27;;
10232;SDS011;5161;48.174;11.756;2023-02-11T04:17:03;12.07;;;8.70;;
10232;SDS011;5161;48.174;11.756;2023-02-11T04:19:29;12.03;;;8.37;;
10232;SDS011;5161;48.174;11.756;2023-02-11T04:21:55;12.17;;;8.50;;
10232;SDS011;5161;48.174;11.756;2023-02-11T04:24:21;11.40;;;8.77;;
10232;SDS011;5161;48.174;11.756;2023-02-11T04:26:46;13.67;;;9.03;;
10232;SDS011;5161;48.174;11.756;2023-02-11T04:29:12;10.33;;;8.30;;
10232;SDS011;5161;48.174;11.756;2023-02-11T04:31:37;13.40;;;8.50;;
10232;SDS011;5161;48.174;11.756;2023-02-11T04:34:03;12.17;;;8.77;;
10232;SDS011;5161;48.174;11.756;2023-02-11T04:36:29;14.60;;;8.80;;
10232;SDS011;5161;48.174;11.756;2023-02-11T04:38:54;9.67;;;8.07;;
10232;SDS011;5161;48.174;11.756;2023-02-11T04:41:20;10.50;;;8.33;;
10232;SDS011;5161;48.174;11.756;2023-02-11T04:43:46;11.80;;;8.20;;
10232;SDS011;5161;48.174;11.756;2023-02-11T04:46:11;11.47;;;8.30;;
10232;SDS011;5161;48.174;11.756;2023-02-11T04:48:37;10.53;;;8.20;;
10232;SDS011;5161;48.174;11.756;2023-02-11T04:51:02;10.50;;;8.20;;
10232;SDS011;5161;48.174;11.756;2023-02-11T04:53:28;13.43;;;8.17;;
10232;SDS011;5161;48.174;11.756;2023-02-11T04:55:54;10.73;;;8.17;;
10232;SDS011;5161;48.174;11.756;2023-02-11T04:58:20;11.77;;;7.83;;
10232;SDS011;5161;48.174;11.756;2023-02-11T05:00:45;11.40;;;8.30;;
10232;SDS011;5161;48.174;11.756;2023-02-11T05:03:11;11.73;;;8.30;;
10232;SDS011;5161;48.174;11.756;2023-02-11T05:05:38;10.13;;;8.07;;
10232;SDS011;5161;48.174;11.756;2023-02-11T05:08:05;10.57;;;8.17;;
10232;SDS011;5161;48.174;11.756;2023-02-11T05:10:31;10.50;;;7.80;;
10232;SDS011;5161;48.174;11.756;2023-02-11T05:12:57;11.37;;;7.80;;
10232;SDS011;5161;48.174;11.756;2023-02-11T05:15:23;13.00;;;7.83;;
10232;SDS011;5161;48.174;11.756;2023-02-11T05:17:50;12.40;;;8.17;;
10232;SDS011;5161;48.174;11.756;2023-02-11T05:20:16;15.87;;;7.80;;
10232;SDS011;5161;48.174;11.756;2023-02-11T05:22:41;9.73;;;7.83;;
10232;SDS011;5161;48.174;11.756;2023-02-11T05:25:07;10.60;;;7.70;;
10232;SDS011;5161;48.174;11.756;2023-02-11T05:27:32;11.03;;;8.30;;
10232;SDS011;5161;48.174;11.756;2023-02-11T05:29:58;10.57;;;8.00;;
10232;SDS011;5161;48.174;11.756;2023-02-11T05:32:24;10.27;;;8.17;;
10232;SDS011;5161;48.174;11.756;2023-02-11T05:34:49;11.20;;;8.27;;
10232;SDS011;5161;48.174;11.756;2023-02-11T05:37:15;11.27;;;8.10;;
10232;SDS011;5161;48.174;11.756;2023-02-11T05:39:41;10.87;;;8.00;;
10232;SDS011;5161;48.174;11.756;2023-02-11T05:42:06;10.83;;;7.60;;
10232;SDS011;5161;48.174;11.756;2023-02-11T05:44:32;13.33;;;8.27;;
10232;SDS011;5161;48.174;11.756;2023-02-11T05:46:57;10.17;;;8.00;;
10232;SDS011;5161;48.174;11.756;2023-02-11T05:49:23;13.13;;;8.10;;
10232;SDS011;5161;48.174;11.756;2023-02-11T05:51:49;9.63;;;7.60;;
10232;SDS011;5161;48.174;11.756;2023-02-11T05:54:14;10.70;;;8.13;;
10232;SDS011;5161;48.174;11.756;2023-02-11T05:56:41;9.53;;;7.63;;
10232;SDS011;5161;48.174;11.756;2023-02-11T05:59:06;11.23;;;7.67;;
10232;SDS011;5161;48.174;11.756;2023-02-11T06:01:32;13.03;;;8.17;;
10232;SDS011;5161;48.174;11.756;2023-02-11T06:03:57;13.30;;;8.30;;
10232;SDS011;5161;48.174;11.756;2023-02-11T06:06:23;14.30;;;8.60;;
10232;SDS011;5161;48.174;11.756;2023-02-11T06:08:49;11.57;;;7.87;;
10232;SDS011;5161;48.174;11.756;2023-02-11T06:11:15;12.13;;;8.30;;
10232;SDS011;5161;48.174;11.756;2023-02-11T06:13:41;10.53;;;8.23;;
10232;SDS011;5161;48.174;11.756;2023-02-11T06:16:07;12.10;;;7.97;;
10232;SDS011;5161;48.174;11.756;2023-02-11T06:18:32;11.13;;;8.13;;
10232;SDS011;5161;48.174;11.756;2023-02-11T06:20:58;12.00;;;7.80;;
10232;SDS011;5161;48.174;11.756;2023-02-11T06:23:25;12.03;;;7.90;;
10232;SDS011;5161;48.174;11.756;2023-02-11T06:25:51;10.20;;;8.00;;
10232;SDS011;5161;48.174;11.756;2023-02-11T06:28:17;10.03;;;7.77;;
10232;SDS011;5161;48.174;11.756;2023-02-11T06:30:43;12.07;;;7.83;;
10232;SDS011;5161;48.174;11.756;2023-02-11T06:33:09;11.87;;;7.97;;
10232;SDS011;5161;48.174;11.756;2023-02-11T06:35:37;10.63;;;8.17;;
10232;SDS011;5161;48.174;11.756;2023-02-11T06:38:03;11.13;;;8.37;;
10232;SDS011;5161;48.174;11.756;2023-02-11T06:40:29;11.87;;;8.27;;
10232;SDS011;5161;48.174;11.756;2023-02-11T06:42:54;12.40;;;8.13;;
10232;SDS011;5161;48.174;11.756;2023-02-11T06:45:20;10.97;;;8.70;;
10232;SDS011;5161;48.174;11.756;2023-02-11T06:47:46;10.77;;;8.33;;
10232;SDS011;5161;48.174;11.756;2023-02-11T06:50:12;13.77;;;8.77;;
10232;SDS011;5161;48.174;11.756;2023-02-11T06:52:38;12.00;;;8.03;;
10232;SDS011;5161;48.174;11.756;2023-02-11T06:55:03;9.63;;;8.30;;
10232;SDS011;5161;48.174;11.756;2023-02-11T06:57:30;12.97;;;8.47;;
10232;SDS011;5161;48.174;11.756;2023-02-11T06:59:56;12.40;;;7.67;;
10232;SDS011;5161;48.174;11.756;2023-02-11T07:02:21;12.53;;;8.13;;
10232;SDS011;5161;48.174;11.756;2023-02-11T07:04:47;10.63;;;8.17;;
10232;SDS011;5161;48.174;11.756;2023-02-11T07:07:13;10.47;;;8.10;;
10232;SDS011;5161;48.174;11.756;2023-02-11T07:09:39;15.17;;;8.40;;
10232;SDS011;5161;48.174;11.756;2023-02-11T07:12:04;10.70;;;8.33;;
10232;SDS011;5161;48.174;11.756;2023-02-11T07:14:30;11.63;;;8.77;;
10232;SDS011;5161;48.174;11.756;2023-02-11T07:16:55;14.60;;;8.93;;
10232;SDS011;5161;48.174;11.756;2023-02-11T07:19:22;12.77;;;8.77;;
10232;SDS011;5161;48.174;11.756;2023-02-11T07:21:47;10.80;;;8.67;;
10232;SDS011;5161;48.174;11.756;2023-02-11T07:24:13;11.97;;;8.70;;
10232;SDS011;5161;48.174;11.756;2023-02-11T07:26:39;15.87;;;8.60;;
10232;SDS011;5161;48.174;11.756;2023-02-11T07:29:04;11.50;;;9.10;;
10232;SDS011;5161;48.174;11.756;2023-02-11T07:31:30;13.50;;;8.33;;
10232;SDS011;5161;48.174;11.756;2023-02-11T07:33:57;12.33;;;8.97;;
10232;SDS011;5161;48.174;11.756;2023-02-11T07:36:24;11.30;;;8.80;;
10232;SDS011;5161;48.174;11.756;2023-02-11T07:38:51;14.20;;;9.30;;
10232;SDS011;5161;48.174;11.756;2023-02-11T07:41:18;14.10;;;8.80;;
10232;SDS011;5161;48.174;11.756;2023-02-11T07:43:45;13.70;;;9.40;;
10232;SDS011;5161;48.174;11.756;2023-02-11T07:46:12;13.87;;;9.13;;
10232;SDS011;5161;48.174;11.756;2023-02-11T07:48:40;17.20;;;9.37;;
10232;SDS011;5161;48.174;11.756;2023-02-11T07:51:15;11.97;;;8.53;;
10232;SDS011;5161;48.174;11.756;2023-02-11T07:53:46;15.30;;;8.80;;
10232;SDS011;5161;48.174;11.756;2023-02-11T07:56:12;14.20;;;8.47;;
10232;SDS011;5161;48.174;11.756;2023-02-11T07:58:39;17.27;;;9.30;;
10232;SDS011;5161;48.174;11.756;2023-02-11T08:01:07;12.00;;;7.97;;
10232;SDS011;5161;48.174;11.756;2023-02-11T08:03:35;12.37;;;7.87;;
10232;SDS011;5161;48.174;11.756;2023-02-11T08:06:05;10.67;;;8.03;;
10232;SDS011;5161;48.174;11.756;2023-02-11T08:08:32;13.17;;;10.13;;
10232;SDS011;5161;48.174;11.756;2023-02-11T08:10:58;10.50;;;7.97;;
10232;SDS011;5161;48.174;11.756;2023-02-11T08:13:29;11.17;;;8.67;;
10232;SDS011;5161;48.174;11.756;2023-02-11T08:15:56;12.93;;;8.77;;
10232;SDS011;5161;48.174;11.756;2023-02-11T08:18:21;14.77;;;9.50;;
10232;SDS011;5161;48.174;11.756;2023-02-11T08:20:47;14.23;;;9.70;;
10232;SDS011;5161;48.174;11.756;2023-02-11T08:23:12;12.70;;;9.37;;
10232;SDS011;5161;48.174;11.756;2023-02-11T08:25:38;13.43;;;10.17;;
10232;SDS011;5161;48.174;11.756;2023-02-11T08:28:04;16.20;;;11.93;;
10232;SDS011;5161;48.174;11.756;2023-02-11T08:30:29;20.30;;;9.60;;
10232;SDS011;5161;48.174;11.756;2023-02-11T08:32:55;18.23;;;10.63;;
10232;SDS011;5161;48.174;11.756;2023-02-11T08:35:20;15.93;;;10.87;;
10232;SDS011;5161;48.174;11.756;2023-02-11T08:37:46;17.40;;;13.13;;
10232;SDS011;5161;48.174;11.756;2023-02-11T08:40:12;22.23;;;14.87;;
10232;SDS011;5161;48.174;11.756;2023-02-11T08:42:37;17.83;;;12.37;;
10232;SDS011;5161;48.174;11.756;2023-02-11T08:45:03;25.73;;;16.53;;
10232;SDS011;5161;48.174;11.756;2023-02-11T08:47:29;27.43;;;17.33;;
10232;SDS011;5161;48.174;11.756;2023-02-11T08:49:55;22.53;;;14.97;;
10232;SDS011;5161;48.174;11.756;2023-02-11T08:52:21;20.93;;;14.07;;
10232;SDS011;5161;48.174;11.756;2023-02-11T08:54:47;22.93;;;15.67;;
10232;SDS011;5161;48.174;11.756;2023-02-11T08:57:13;18.67;;;13.63;;
10232;SDS011;5161;48.174;11.756;2023-02-11T08:59:39;19.07;;;12.07;;
10232;SDS011;5161;48.174;11.756;2023-02-11T09:02:05;17.50;;;12.23;;
10232;SDS011;5161;48.174;11.756;2023-02-11T09:04:31;21.77;;;12.13;;
10232;SDS011;5161;48.174;11.756;2023-02-11T09:06:57;17.47;;;10.43;;
10232;SDS011;5161;48.174;11.756;2023-02-11T09:09:23;18.73;;;11.53;;
10232;SDS011;5161;48.174;11.756;2023-02-11T09:11:48;18.87;;;11.03;;
10232;SDS011;5161;48.174;11.756;2023-02-11T09:14:18;16.30;;;11.40;;
10232;SDS011;5161;48.174;11.756;2023-02-11T09:16:45;24.27;;;11.53;;
10232;SDS011;5161;48.174;11.756;2023-02-11T09:19:11;20.73;;;11.60;;
10232;SDS011;5161;48.174;11.756;2023-02-11T09:21:37;20.47;;;11.90;;
10232;SDS011;5161;48.174;11.756;2023-02-11T09:24:03;18.60;;;12.63;;
10232;SDS011;5161;48.174;11.756;2023-02-11T09:26:31;24.57;;;13.40;;
10232;SDS011;5161;48.174;11.756;2023-02-11T09:28:58;23.93;;;13.63;;
10232;SDS011;5161;48.174;11.756;2023-02-11T09:31:25;21.03;;;13.13;;
10232;SDS011;5161;48.174;11.756;2023-02-11T09:33:54;22.57;;;13.20;;
10232;SDS011;5161;48.174;11.756;2023-02-11T09:36:25;26.20;;;13.43;;
10232;SDS011;5161;48.174;11.756;2023-02-11T09:38:53;21.93;;;12.87;;
10232;SDS011;5161;48.174;11.756;2023-02-11T09:41:24;20.87;;;13.30;;
10232;SDS011;5161;48.174;11.756;2023-02-11T09:43:57;23.57;;;13.67;;
10232;SDS011;5161;48.174;11.756;2023-02-11T09:46:24;23.07;;;13.17;;
10232;SDS011;5161;48.174;11.756;2023-02-11T09:48:54;27.27;;;15.07;;
10232;SDS011;5161;48.174;11.756;2023-02-11T09:54:12;24.27;;;14.03;;
10232;SDS011;5161;48.174;11.756;2023-02-11T09:56:45;22.33;;;14.90;;
10232;SDS011;5161;48.174;11.756;2023-02-11T09:59:12;20.13;;;13.43;;
10232;SDS011;5161;48.174;11.756;2023-02-11T10:01:59;24.33;;;13.00;;
10232;SDS011;5161;48.174;11.756;2023-02-11T10:07:42;19.50;;;13.00;;
10232;SDS011;5161;48.174;11.756;2023-02-11T10:16:00;30.23;;;17.53;;
10232;SDS011;5161;48.174;11.756;2023-02-11T10:18:39;25.57;;;14.63;;
10232;SDS011;5161;48.174;11.756;2023-02-11T10:21:29;20.63;;;14.03;;
10232;SDS011;5161;48.174;11.756;2023-02-11T10:24:08;20.50;;;13.87;;
10232;SDS011;5161;48.174;11.756;2023-02-11T10:26:35;21.87;;;15.00;;
10232;SDS011;5161;48.174;11.756;2023-02-11T10:29:09;20.63;;;14.03;;
10232;SDS011;5161;48.174;11.756;2023-02-11T10:32:08;21.97;;;14.27;;
10232;SDS011;5161;48.174;11.756;2023-02-11T10:34:44;23.73;;;13.77;;
10232;SDS011;5161;48.174;11.756;2023-02-11T10:37:11;23.20;;;14.67;;
10232;SDS011;5161;48.174;11.756;2023-02-11T10:39:39;24.20;;;15.40;;
10232;SDS011;5161;48.174;11.756;2023-02-11T10:42:06;27.63;;;16.23;;
10232;SDS011;5161;48.174;11.756;2023-02-11T10:44:36;26.47;;;16.73;;
10232;SDS011;5161;48.174;11.756;2023-02-11T10:47:11;24.73;;;15.97;;
10232;SDS011;5161;48.174;11.756;2023-02-11T10:49:43;22.63;;;15.00;;
10232;SDS011;5161;48.174;11.756;2023-02-11T10:57:55;19.67;;;14.90;;
10232;SDS011;5161;48.174;11.756;2023-02-11T11:00:34;20.80;;;13.73;;
10232;SDS011;5161;48.174;11.756;2023-02-11T11:03:04;21.07;;;14.63;;
10232;SDS011;5161;48.174;11.756;2023-02-11T11:05:46;20.27;;;14.07;;
10232;SDS011;5161;48.174;11.756;2023-02-11T11:08:15;24.10;;;14.53;;
10232;SDS011;5161;48.174;11.756;2023-02-11T11:10:46;27.00;;;15.80;;
10232;SDS011;5161;48.174;11.756;2023-02-11T11:18:39;25.23;;;16.93;;
10232;SDS011;5161;48.174;11.756;2023-02-11T11:21:17;27.43;;;16.90;;
10232;SDS011;5161;48.174;11.756;2023-02-11T11:23:47;22.43;;;16.87;;
10232;SDS011;5161;48.174;11.756;2023-02-11T11:26:16;22.13;;;14.60;;
10232;SDS011;5161;48.174;11.756;2023-02-11T11:31:12;23.00;;;15.30;;
10232;SDS011;5161;48.174;11.756;2023-02-11T11:33:42;24.13;;;15.23;;
10232;SDS011;5161;48.174;11.756;2023-02-11T11:36:10;25.40;;;18.43;;
10232;SDS011;5161;48.174;11.756;2023-02-11T11:38:43;23.43;;;15.30;;
10232;SDS011;5161;48.174;11.756;2023-02-11T11:41:30;22.83;;;14.40;;
10232;SDS011;5161;48.174;11.756;2023-02-11T11:44:00;24.87;;;16.60;;
10232;SDS011;5161;48.174;11.756;2023-02-11T11:46:34;24.20;;;15.87;;
10232;SDS011;5161;48.174;11.756;2023-02-11T11:49:12;23.40;;;15.43;;
10232;SDS011;5161;48.174;11.756;2023-02-11T11:51:50;24.80;;;14.80;;
10232;SDS011;5161;48.174;11.756;2023-02-11T11:54:23;23.37;;;14.80;;
10232;SDS011;5161;48.174;11.756;2023-02-11T11:56:58;19.53;;;14.00;;
10232;SDS011;5161;48.174;11.756;2023-02-11T11:59:29;21.73;;;14.70;;
10232;SDS011;5161;48.174;11.756;2023-02-11T12:04:49;25.57;;;14.97;;
10232;SDS011;5161;48.174;11.756;2023-02-11T12:18:02;24.07;;;16.57;;
10232;SDS011;5161;48.174;11.756;2023-02-11T12:21:28;26.10;;;16.07;;
10232;SDS011;5161;48.174;11.756;2023-02-11T12:23:37;24.97;;;15.23;;
10232;SDS011;5161;48.174;11.756;2023-02-11T12:34:37;28.33;;;16.10;;
10232;SDS011;5161;48.174;11.756;2023-02-11T12:50:17;21.30;;;15.03;;
10232;SDS011;5161;48.174;11.756;2023-02-11T12:55:26;20.23;;;13.47;;
10232;SDS011;5161;48.174;11.756;2023-02-11T12:57:56;20.73;;;13.50;;
10232;SDS011;5161;48.174;11.756;2023-02-11T13:00:28;22.37;;;14.23;;
10232;SDS011;5161;48.174;11.756;2023-02-11T13:03:06;21.07;;;12.90;;
10232;SDS011;5161;48.174;11.756;2023-02-11T13:05:48;22.50;;;13.77;;
10232;SDS011;5161;48.174;11.756;2023-02-11T13:08:32;21.53;;;14.10;;
10232;SDS011;5161;48.174;11.756;2023-02-11T13:13:56;19.80;;;14.20;;
10232;SDS011;5161;48.174;11.756;2023-02-11T13:16:37;19.90;;;14.30;;
10232;SDS011;5161;48.174;11.756;2023-02-11T13:24:55;22.43;;;14.27;;
10232;SDS011;5161;48.174;11.756;2023-02-11T13:30:35;18.97;;;13.63;;
10232;SDS011;5161;48.174;11.756;2023-02-11T13:33:18;23.50;;;14.90;;
10232;SDS011;5161;48.174;11.756;2023-02-11T13:38:23;25.70;;;14.63;;
10232;SDS011;5161;48.174;11.756;2023-02-11T13:43:33;20.57;;;14.23;;
10232;SDS011;5161;48.174;11.756;2023-02-11T13:46:01;20.67;;;14.63;;
10232;SDS011;5161;48.174;11.756;2023-02-11T13:48:35;21.07;;;13.90;;
10232;SDS011;5161;48.174;11.756;2023-02-11T13:56:23;26.13;;;15.07;;
10232;SDS011;5161;48.174;11.756;2023-02-11T13:58:57;24.00;;;14.20;;
10232;SDS011;5161;48.174;11.756;2023-02-11T14:04:30;22.27;;;14.13;;
10232;SDS011;5161;48.174;11.756;2023-02-11T14:07:25;23.53;;;13.80;;
10232;SDS011;5161;48.174;11.756;2023-02-11T14:16:11;20.50;;;14.27;;
10232;SDS011;5161;48.174;11.756;2023-02-11T14:29:25;21.10;;;14.03;;
10232;SDS011;5161;48.174;11.756;2023-02-11T14:40:04;21.63;;;15.77;;
10232;SDS011;5161;48.174;11.756;2023-02-11T14:42:31;24.60;;;16.20;;
10232;SDS011;5161;48.174;11.756;2023-02-11T14:45:01;27.50;;;16.57;;
10232;SDS011;5161;48.174;11.756;2023-02-11T14:47:40;21.23;;;16.13;;
10232;SDS011;5161;48.174;11.756;2023-02-11T14:53:18;23.50;;;17.23;;
10232;SDS011;5161;48.174;11.756;2023-02-11T14:55:48;23.30;;;16.57;;
10232;SDS011;5161;48.174;11.756;2023-02-11T14:58:20;21.47;;;16.13;;
10232;SDS011;5161;48.174;11.756;2023-02-11T15:03:31;22.27;;;16.40;;
10232;SDS011;5161;48.174;11.756;2023-02-11T15:08:43;22.93;;;17.20;;
10232;SDS011;5161;48.174;11.756;2023-02-11T15:11:13;24.20;;;17.77;;
10232;SDS011;5161;48.174;11.756;2023-02-11T15:13:40;24.93;;;18.37;;
10232;SDS011;5161;48.174;11.756;2023-02-11T15:16:11;24.27;;;17.87;;
10232;SDS011;5161;48.174;11.756;2023-02-11T15:18:42;25.53;;;18.43;;
10232;SDS011;5161;48.174;11.756;2023-02-11T15:21:11;25.50;;;17.83;;
10232;SDS011;5161;48.174;11.756;2023-02-11T15:23:43;26.60;;;18.20;;
10232;SDS011;5161;48.174;11.756;2023-02-11T15:26:20;24.10;;;18.30;;
10232;SDS011;5161;48.174;11.756;2023-02-11T15:28:46;27.30;;;18.70;;
10232;SDS011;5161;48.174;11.756;2023-02-11T15:31:17;29.33;;;18.90;;
10232;SDS011;5161;48.174;11.756;2023-02-11T15:33:44;26.70;;;19.40;;
10232;SDS011;5161;48.174;11.756;2023-02-11T15:36:11;28.10;;;19.73;;
10232;SDS011;5161;48.174;11.756;2023-02-11T15:38:39;29.00;;;19.87;;
10232;SDS011;5161;48.174;11.756;2023-02-11T15:41:05;27.17;;;19.03;;
10232;SDS011;5161;48.174;11.756;2023-02-11T15:43:47;26.60;;;19.10;;
10232;SDS011;5161;48.174;11.756;2023-02-11T15:46:20;24.77;;;19.23;;
10232;SDS011;5161;48.174;11.756;2023-02-11T15:48:51;28.07;;;20.10;;
10232;SDS011;5161;48.174;11.756;2023-02-11T15:51:36;27.57;;;20.87;;
10232;SDS011;5161;48.174;11.756;2023-02-11T15:54:05;27.10;;;19.97;;
10232;SDS011;5161;48.174;11.756;2023-02-11T15:56:43;27.47;;;20.40;;
10232;SDS011;5161;48.174;11.756;2023-02-11T15:59:16;27.33;;;19.90;;
10232;SDS011;5161;48.174;11.756;2023-02-11T16:01:44;30.47;;;19.77;;
10232;SDS011;5161;48.174;11.756;2023-02-11T16:04:15;30.70;;;20.47;;
10232;SDS011;5161;48.174;11.756;2023-02-11T16:06:43;27.37;;;19.43;;
10232;SDS011;5161;48.174;11.756;2023-02-11T16:14:20;30.73;;;22.77;;
10232;SDS011;5161;48.174;11.756;2023-02-11T16:16:56;36.03;;;21.60;;
10232;SDS011;5161;48.174;11.756;2023-02-11T16:19:23;40.33;;;26.87;;
10232;SDS011;5161;48.174;11.756;2023-02-11T16:21:50;38.10;;;28.23;;
10232;SDS011;5161;48.174;11.756;2023-02-11T16:24:18;35.17;;;25.90;;
10232;SDS011;5161;48.174;11.756;2023-02-11T16:26:53;37.57;;;27.23;;
10232;SDS011;5161;48.174;11.756;2023-02-11T16:29:31;39.03;;;27.73;;
10232;SDS011;5161;48.174;11.756;2023-02-11T16:34:39;42.77;;;27.40;;
10232;SDS011;5161;48.174;11.756;2023-02-11T16:37:05;41.90;;;27.33;;
10232;SDS011;5161;48.174;11.756;2023-02-11T16:39:31;41.67;;;27.23;;
10232;SDS011;5161;48.174;11.756;2023-02-11T16:41:57;35.00;;;25.17;;
10232;SDS011;5161;48.174;11.756;2023-02-11T16:44:23;42.70;;;27.63;;
10232;SDS011;5161;48.174;11.756;2023-02-11T16:46:49;40.20;;;27.60;;
10232;SDS011;5161;48.174;11.756;2023-02-11T16:51:47;44.03;;;28.43;;
10232;SDS011;5161;48.174;11.756;2023-02-11T16:54:15;41.70;;;27.57;;
10232;SDS011;5161;48.174;11.756;2023-02-11T16:56:41;43.17;;;28.30;;
10232;SDS011;5161;48.174;11.756;2023-02-11T16:59:07;44.90;;;28.90;;
10232;SDS011;5161;48.174;11.756;2023-02-11T17:01:33;43.47;;;27.93;;
10232;SDS011;5161;48.174;11.756;2023-02-11T17:03:59;34.90;;;24.13;;
10232;SDS011;5161;48.174;11.756;2023-02-11T17:06:26;32.33;;;22.77;;
10232;SDS011;5161;48.174;11.756;2023-02-11T17:08:52;31.23;;;23.23;;
10232;SDS011;5161;48.174;11.756;2023-02-11T17:11:17;32.33;;;22.83;;
10232;SDS011;5161;48.174;11.756;2023-02-11T17:13:43;30.87;;;21.73;;
10232;SDS011;5161;48.174;11.756;2023-02-11T17:16:19;33.67;;;23.30;;